Kezdőlap
METAR-TAF:

METAR-TAF

Repülőterek :

Csita, Oroszország

földrajzi szélesség: 52-05N, földrajzi hosszúság: 113-29E, magasság: 685 m

Jelenlegi meteorológiai megfigyelések

A jelentés 21 perccel ezelõtt készült, 15:00 UTC
Kelet-délkeleti szél 2 kt
Hőmérséklet 3°C
Páratartalom 75%
Légköri nyomás 1009 hPa
Látótávolság 10 km, vagy több

METAR: UIAA 211500Z AUTO 11001MPS 9999 ///044/// 03/M01 Q1009 RMK QFE699/0932

Idő: 00:21 (15:21 UTC)

Előrejelzés

A jelentés 1 órával és 21 perccel ezelõtt készült, 14:00 UTC
Az előrejelzés 21-én 15 óra UTC és 22-én 15 óra UTC között érvényes
Nyugat-északnyugati szél 6 kt
Látótávolság 10 km, vagy több
Szakadozott felhőzet 3000 lábon, Cumulonimbus.
21-én 18 óra UTC és 22-én 03 óra UTC között ideiglenes
Látótávolság: 3100 m
Borult 1400 lábon, Cumulonimbus.
enyhe hózápor

TAF: UIAA 211400Z 2115/2215 30003MPS 9999 BKN030CB TEMPO 2118/2203 3100 -SHSN OVC014CB

Meteorológiai megfigyelések és előrejelzések több, mint 4000 repülőtéren (METAR és TAF jelentéseket).

A térképen piros és sárga pontok jelzik az elérhető meteorológiai állomásokat.

Mozgassa az egeret a pont fölött, hogy megjelenjen az állomás neve.

Azután kattintson az időjárási megfigyelések és előrejelzések megtekintéséhez.

A térkép megváltoztatása: kattintson a fekete keresztel jelölt zöld gombra ráközelítéshez, a vonallal jelölt zöld gombra távolításhoz, vagy a zöld nyilakra a szomszédos térképek eléréséhez.


METAR-TAF: